createdAt,value
2022-08-05T00:00:24.275Z,16.70
2022-08-05T00:02:54.413Z,16.60
2022-08-05T00:06:02.091Z,16.60
2022-08-05T00:08:32.571Z,16.60
2022-08-05T00:11:02.312Z,16.50
2022-08-05T00:13:39.284Z,16.40
2022-08-05T00:16:09.510Z,16.40
2022-08-05T00:18:42.155Z,16.30
2022-08-05T00:21:10.770Z,16.30
2022-08-05T00:23:46.643Z,16.20
2022-08-05T00:26:23.395Z,16.20
2022-08-05T00:28:52.031Z,16.10
2022-08-05T00:31:41.513Z,15.90
2022-08-05T00:34:53.414Z,15.90
2022-08-05T00:37:11.630Z,15.90
2022-08-05T00:39:57.384Z,15.90
2022-08-05T00:42:36.634Z,15.90
2022-08-05T00:45:08.816Z,15.90
2022-08-05T00:47:57.213Z,15.90
2022-08-05T00:50:29.047Z,15.90
2022-08-05T00:52:57.107Z,15.90
2022-08-05T00:55:34.195Z,16.00
2022-08-05T00:58:12.972Z,15.90
2022-08-05T01:00:42.421Z,15.80
2022-08-05T01:03:12.625Z,15.80
2022-08-05T01:05:51.494Z,15.70
2022-08-05T01:08:39.839Z,15.70
2022-08-05T01:11:13.625Z,15.60
2022-08-05T01:13:58.699Z,15.60
2022-08-05T01:16:31.952Z,15.50
2022-08-05T01:19:07.705Z,15.50
2022-08-05T01:21:58.275Z,15.50
2022-08-05T01:24:43.843Z,15.40
2022-08-05T01:27:26.543Z,15.30
2022-08-05T01:29:59.073Z,15.30
2022-08-05T01:32:29.163Z,15.30
2022-08-05T01:35:02.021Z,15.20
2022-08-05T01:37:36.534Z,15.20
2022-08-05T01:40:06.359Z,15.20
2022-08-05T01:42:37.441Z,15.30
2022-08-05T01:45:08.700Z,15.20
2022-08-05T01:47:39.501Z,15.30
2022-08-05T01:50:15.952Z,15.30
2022-08-05T01:52:50.130Z,15.20
2022-08-05T01:55:21.284Z,15.20
2022-08-05T01:58:10.129Z,15.10
2022-08-05T02:00:45.233Z,15.00
2022-08-05T02:03:29.180Z,15.00
2022-08-05T02:06:03.738Z,15.10
2022-08-05T02:08:54.778Z,15.00
2022-08-05T02:11:32.857Z,15.00
2022-08-05T02:14:12.362Z,14.90
2022-08-05T02:16:52.323Z,14.90
2022-08-05T02:19:34.341Z,14.80
2022-08-05T02:22:25.328Z,14.80
2022-08-05T02:25:00.174Z,14.80
2022-08-05T02:27:58.586Z,15.00
2022-08-05T02:30:19.098Z,15.10
2022-08-05T02:32:52.269Z,15.00
2022-08-05T02:35:28.119Z,15.00
2022-08-05T02:38:03.096Z,15.00
2022-08-05T02:40:32.555Z,15.00
2022-08-05T02:43:02.449Z,15.00
2022-08-05T02:45:52.806Z,15.00
2022-08-05T02:48:29.329Z,15.00
2022-08-05T02:51:01.135Z,15.10
2022-08-05T02:53:35.950Z,15.10
2022-08-05T02:56:09.340Z,15.20
2022-08-05T02:58:43.745Z,15.20
2022-08-05T03:01:19.582Z,15.20
2022-08-05T03:04:02.097Z,15.20
2022-08-05T03:06:55.095Z,15.20
2022-08-05T03:09:36.310Z,15.20
2022-08-05T03:12:07.865Z,15.40
2022-08-05T03:14:45.702Z,15.30
2022-08-05T03:17:14.486Z,15.30
2022-08-05T03:19:45.450Z,15.20
2022-08-05T03:22:16.730Z,15.30
2022-08-05T03:24:50.690Z,15.40
2022-08-05T03:27:19.599Z,15.40
2022-08-05T03:30:07.331Z,15.40
2022-08-05T03:32:36.942Z,15.40
2022-08-05T03:35:07.409Z,15.50
2022-08-05T03:37:45.794Z,15.50
2022-08-05T03:40:31.353Z,15.40
2022-08-05T03:43:16.032Z,15.30
2022-08-05T03:45:58.021Z,15.30
2022-08-05T03:48:27.492Z,15.40
2022-08-05T03:52:34.963Z,15.40
2022-08-05T03:55:07.198Z,15.40
2022-08-05T03:56:49.894Z,15.40
2022-08-05T03:59:22.652Z,15.40
2022-08-05T04:01:59.107Z,15.20
2022-08-05T04:04:29.086Z,15.20
2022-08-05T04:07:00.176Z,15.30
2022-08-05T04:09:29.401Z,15.20
2022-08-05T04:11:58.047Z,15.20
2022-08-05T04:14:30.331Z,15.30
2022-08-05T04:17:00.835Z,15.40
2022-08-05T04:19:31.662Z,15.50
2022-08-05T04:22:09.545Z,15.60
2022-08-05T04:24:44.530Z,15.70
2022-08-05T04:27:41.967Z,16.00
2022-08-05T04:30:10.641Z,16.40
2022-08-05T04:32:39.121Z,16.40
2022-08-05T04:35:17.440Z,16.50
2022-08-05T04:38:01.004Z,16.60
2022-08-05T04:40:35.258Z,16.60
2022-08-05T04:43:04.172Z,16.80
2022-08-05T04:45:49.082Z,17.00
2022-08-05T04:48:27.481Z,17.20
2022-08-05T04:51:02.537Z,17.20
2022-08-05T04:53:35.552Z,17.40
2022-08-05T04:56:33.323Z,17.50
2022-08-05T04:58:52.562Z,17.60
2022-08-05T05:02:05.616Z,17.90
2022-08-05T05:04:09.420Z,18.10
2022-08-05T05:06:44.804Z,18.20
2022-08-05T05:09:19.316Z,18.20
2022-08-05T05:11:54.092Z,18.30
2022-08-05T05:14:31.287Z,18.50
2022-08-05T05:17:00.133Z,18.50
2022-08-05T05:19:36.975Z,18.50
2022-08-05T05:22:23.636Z,18.50
2022-08-05T05:24:57.899Z,18.30
2022-08-05T05:27:45.015Z,18.30
2022-08-05T05:30:30.616Z,18.20
2022-08-05T05:33:09.134Z,18.10
2022-08-05T05:35:45.852Z,18.10
2022-08-05T05:38:14.457Z,18.00
2022-08-05T05:40:49.837Z,18.00
2022-08-05T05:43:27.662Z,18.00
2022-08-05T05:46:16.130Z,17.90
2022-08-05T05:48:48.220Z,17.80
2022-08-05T05:51:21.064Z,17.80
2022-08-05T05:53:58.287Z,17.90
2022-08-05T05:56:33.138Z,18.00
2022-08-05T05:59:05.517Z,18.10
2022-08-05T06:01:38.045Z,18.20
2022-08-05T06:04:07.759Z,18.20
2022-08-05T06:06:36.173Z,18.20
2022-08-05T06:09:05.862Z,18.10
2022-08-05T06:11:39.322Z,18.10
2022-08-05T06:14:07.701Z,18.00
2022-08-05T06:16:37.105Z,18.20
2022-08-05T06:19:07.328Z,18.20
2022-08-05T06:21:38.699Z,18.60
2022-08-05T06:24:11.372Z,19.20
2022-08-05T06:26:51.733Z,19.80
2022-08-05T06:29:42.878Z,20.10
2022-08-05T06:32:26.357Z,20.10
2022-08-05T06:34:58.533Z,19.80
2022-08-05T06:37:56.273Z,19.70
2022-08-05T06:40:18.287Z,19.90
2022-08-05T06:42:52.312Z,20.10
2022-08-05T06:45:43.901Z,19.80
2022-08-05T06:48:37.133Z,19.70
2022-08-05T06:51:00.075Z,19.70
2022-08-05T06:53:29.280Z,19.80
2022-08-05T06:55:58.303Z,19.60
2022-08-05T06:58:34.779Z,19.50
2022-08-05T07:01:06.461Z,19.20
2022-08-05T07:03:35.563Z,19.00
2022-08-05T07:06:06.294Z,18.70
2022-08-05T07:08:42.676Z,18.50
2022-08-05T07:11:15.120Z,18.10
2022-08-05T07:14:02.827Z,17.80
2022-08-05T07:17:56.216Z,17.50
2022-08-05T07:20:16.795Z,17.30
2022-08-05T07:22:29.807Z,17.10
2022-08-05T07:25:22.130Z,16.80
2022-08-05T07:27:58.740Z,16.80
2022-08-05T07:30:33.973Z,16.70
2022-08-05T07:33:05.549Z,16.60
2022-08-05T07:36:04.400Z,16.50
2022-08-05T07:38:34.661Z,16.50
2022-08-05T07:41:16.861Z,16.40
2022-08-05T07:43:56.370Z,16.30
2022-08-05T07:46:26.890Z,16.20
2022-08-05T07:49:04.306Z,16.30
2022-08-05T07:51:36.367Z,16.40
2022-08-05T07:54:08.546Z,16.40
2022-08-05T07:57:00.412Z,16.40
2022-08-05T07:59:38.839Z,16.30
2022-08-05T08:02:16.596Z,16.20
2022-08-05T08:04:47.335Z,16.10
2022-08-05T08:07:16.017Z,16.10
2022-08-05T08:09:46.048Z,16.00
2022-08-05T08:12:33.475Z,15.90
2022-08-05T08:15:04.242Z,15.90
2022-08-05T08:17:34.432Z,15.80
2022-08-05T08:20:42.795Z,15.80
2022-08-05T08:22:55.812Z,15.80
2022-08-05T08:25:27.021Z,15.60
2022-08-05T08:28:18.785Z,15.70
2022-08-05T08:31:01.043Z,15.60
2022-08-05T08:33:30.500Z,15.50
2022-08-05T08:36:37.148Z,15.50
2022-08-05T08:38:55.478Z,15.50
2022-08-05T08:41:26.222Z,15.70
2022-08-05T08:45:17.975Z,15.80
2022-08-05T08:47:47.118Z,15.80
2022-08-05T08:50:23.391Z,15.70
2022-08-05T08:52:51.726Z,15.80
2022-08-05T08:56:01.964Z,15.70
2022-08-05T08:58:12.740Z,15.70
2022-08-05T09:00:42.238Z,15.70
2022-08-05T09:03:11.427Z,15.80
2022-08-05T09:06:08.765Z,15.90
2022-08-05T09:08:30.232Z,16.10
2022-08-05T09:10:58.798Z,16.50
2022-08-05T09:13:31.936Z,16.70
2022-08-05T09:16:17.135Z,16.90
2022-08-05T09:18:45.560Z,17.00
2022-08-05T09:21:20.799Z,17.00
2022-08-05T09:24:05.643Z,16.90
2022-08-05T09:26:35.359Z,16.80
2022-08-05T09:29:07.082Z,16.80
2022-08-05T09:32:41.098Z,16.70
2022-08-05T09:34:26.041Z,16.70
2022-08-05T09:36:59.170Z,16.70
2022-08-05T09:39:41.649Z,16.60
2022-08-05T09:42:23.219Z,16.70
2022-08-05T09:44:56.476Z,16.70
2022-08-05T09:47:29.473Z,16.70
2022-08-05T09:50:17.815Z,16.70
2022-08-05T09:53:04.345Z,16.70
2022-08-05T09:55:56.675Z,16.70
2022-08-05T09:58:26.967Z,16.70
2022-08-05T10:01:00.860Z,16.70
2022-08-05T10:03:56.978Z,16.80
2022-08-05T10:06:20.960Z,17.00
2022-08-05T10:08:55.300Z,17.10
2022-08-05T10:11:24.267Z,17.20
2022-08-05T10:13:59.558Z,17.30
2022-08-05T10:16:33.972Z,17.60
2022-08-05T10:19:09.496Z,17.90
2022-08-05T10:21:40.444Z,18.10
2022-08-05T10:24:13.534Z,18.20
2022-08-05T10:26:51.207Z,18.30
2022-08-05T10:29:22.391Z,18.30
2022-08-05T10:32:54.223Z,18.20
2022-08-05T10:34:41.199Z,18.30
2022-08-05T10:37:09.704Z,18.30
2022-08-05T10:39:59.525Z,18.50
2022-08-05T10:42:38.406Z,18.70
2022-08-05T10:45:23.355Z,18.90
2022-08-05T10:48:36.123Z,19.00
2022-08-05T10:51:21.992Z,19.20
2022-08-05T10:53:58.177Z,19.40
2022-08-05T10:56:29.773Z,19.40
2022-08-05T11:00:01.378Z,19.40
2022-08-05T11:02:14.721Z,19.50
2022-08-05T11:04:57.617Z,19.50
2022-08-05T11:07:33.109Z,19.40
2022-08-05T11:10:23.124Z,19.70
2022-08-05T11:12:57.852Z,20.10
2022-08-05T11:16:00.802Z,20.40
2022-08-05T11:18:29.804Z,20.50
2022-08-05T11:21:02.709Z,20.70
2022-08-05T11:24:02.622Z,20.60
2022-08-05T11:26:29.248Z,20.60
2022-08-05T11:29:06.846Z,20.30
2022-08-05T11:31:56.969Z,20.20
2022-08-05T11:34:39.636Z,20.30
2022-08-05T11:38:28.066Z,20.30
2022-08-05T11:40:03.717Z,20.20
2022-08-05T11:42:37.903Z,20.20
2022-08-05T11:45:23.430Z,20.40
2022-08-05T11:47:59.165Z,20.60
2022-08-05T11:50:27.628Z,20.80
2022-08-05T11:52:58.165Z,21.00
2022-08-05T11:55:32.127Z,21.00
2022-08-05T11:58:10.089Z,21.10
2022-08-05T12:00:44.298Z,21.30
2022-08-05T12:03:23.927Z,21.30
2022-08-05T12:06:06.241Z,21.40
2022-08-05T12:08:49.781Z,21.10
2022-08-05T12:11:20.955Z,20.90
2022-08-05T12:13:58.682Z,20.90
2022-08-05T12:16:30.779Z,20.90
2022-08-05T12:18:59.125Z,20.70
2022-08-05T12:21:30.617Z,20.70
2022-08-05T12:24:04.781Z,20.70
2022-08-05T12:26:35.429Z,20.80
2022-08-05T12:29:05.812Z,21.00
2022-08-05T12:31:45.988Z,21.00
2022-08-05T12:34:23.789Z,21.30
2022-08-05T12:36:54.250Z,21.60
2022-08-05T12:39:23.652Z,21.50
2022-08-05T12:41:59.476Z,21.30
2022-08-05T12:44:33.151Z,21.30
2022-08-05T12:47:04.433Z,21.30
2022-08-05T12:50:03.421Z,21.30
2022-08-05T12:52:41.814Z,21.40
2022-08-05T12:55:22.237Z,21.50
2022-08-05T12:58:48.358Z,21.20
2022-08-05T13:02:00.258Z,21.10
2022-08-05T13:03:38.969Z,21.00
2022-08-05T13:06:20.738Z,20.80
2022-08-05T13:08:51.524Z,20.70
2022-08-05T13:11:25.647Z,20.70
2022-08-05T13:14:19.283Z,20.70
2022-08-05T13:16:56.529Z,20.60
2022-08-05T13:19:27.724Z,20.40
2022-08-05T13:22:28.363Z,20.10
2022-08-05T13:25:00.454Z,19.80
2022-08-05T13:27:37.431Z,19.70
2022-08-05T13:30:33.105Z,19.60
2022-08-05T13:32:57.289Z,19.60
2022-08-05T13:35:47.395Z,19.70
2022-08-05T13:38:30.517Z,19.70
2022-08-05T13:41:00.273Z,19.60
2022-08-05T13:43:45.197Z,19.60
2022-08-05T13:46:18.521Z,19.40
2022-08-05T13:49:04.303Z,19.20
2022-08-05T13:51:36.386Z,19.20
2022-08-05T13:54:12.051Z,19.20
2022-08-05T13:56:51.115Z,19.10
2022-08-05T13:59:24.196Z,19.10
2022-08-05T14:01:58.361Z,19.00
2022-08-05T14:04:50.009Z,19.00
2022-08-05T14:07:55.550Z,18.90
2022-08-05T14:10:11.989Z,18.90
2022-08-05T14:12:40.226Z,19.00
2022-08-05T14:16:06.274Z,19.00
2022-08-05T14:18:01.321Z,19.00
2022-08-05T14:20:30.683Z,19.10
2022-08-05T14:23:00.475Z,19.00
2022-08-05T14:25:30.136Z,18.70
2022-08-05T14:27:58.752Z,18.40
2022-08-05T14:30:27.866Z,18.20
2022-08-05T14:32:57.136Z,18.20
2022-08-05T14:35:37.517Z,17.90
2022-08-05T14:38:32.315Z,17.80
2022-08-05T14:41:05.603Z,17.70
2022-08-05T14:43:57.779Z,17.70
2022-08-05T14:46:28.403Z,17.60
2022-08-05T14:48:59.709Z,17.60
2022-08-05T14:51:35.703Z,17.50
2022-08-05T14:54:26.390Z,17.40
2022-08-05T14:56:53.748Z,17.40
2022-08-05T14:59:23.368Z,17.40
2022-08-05T15:01:51.622Z,17.30
2022-08-05T15:04:22.858Z,17.20
2022-08-05T15:06:51.747Z,17.10
2022-08-05T15:09:54.217Z,17.10
2022-08-05T15:12:11.745Z,17.10
2022-08-05T15:14:50.064Z,17.10
2022-08-05T15:17:46.721Z,17.10
2022-08-05T15:20:15.537Z,17.20
2022-08-05T15:22:46.399Z,17.10
2022-08-05T15:25:51.046Z,17.00
2022-08-05T15:28:14.405Z,16.80
2022-08-05T15:30:43.661Z,16.70
2022-08-05T15:33:56.442Z,16.60
2022-08-05T15:36:03.415Z,16.50
2022-08-05T15:38:35.466Z,16.30
2022-08-05T15:41:22.490Z,16.30
2022-08-05T15:43:54.573Z,16.20
2022-08-05T15:46:24.351Z,16.10
2022-08-05T15:48:58.735Z,16.10
2022-08-05T15:52:13.812Z,16.00
2022-08-05T15:54:34.743Z,16.10
2022-08-05T15:57:07.754Z,16.00
2022-08-05T15:59:36.364Z,16.00
2022-08-05T16:02:09.402Z,15.90
2022-08-05T16:04:43.129Z,15.90
2022-08-05T16:07:13.280Z,16.00
2022-08-05T16:09:42.060Z,16.00
2022-08-05T16:12:13.091Z,16.10
2022-08-05T16:14:43.924Z,16.20
2022-08-05T16:17:12.282Z,16.30
2022-08-05T16:20:03.172Z,16.30
2022-08-05T16:22:33.927Z,16.30
2022-08-05T16:25:09.863Z,16.20
2022-08-05T16:28:00.276Z,16.20
2022-08-05T16:30:29.289Z,16.20
2022-08-05T16:32:58.214Z,16.20
2022-08-05T16:35:32.587Z,16.30
2022-08-05T16:38:23.842Z,16.30
2022-08-05T16:40:55.317Z,16.20
2022-08-05T16:43:26.415Z,16.10
2022-08-05T16:46:04.466Z,15.90
2022-08-05T16:48:37.634Z,15.60
2022-08-05T16:51:09.423Z,15.20
2022-08-05T16:54:02.409Z,15.00
2022-08-05T16:56:29.236Z,14.90
2022-08-05T16:59:00.920Z,14.80
2022-08-05T17:01:53.802Z,14.70
2022-08-05T17:04:26.536Z,14.60
2022-08-05T17:06:56.936Z,14.50
2022-08-05T17:09:29.602Z,14.50
2022-08-05T17:11:59.837Z,14.50
2022-08-05T17:14:37.343Z,14.40
2022-08-05T17:17:14.615Z,14.50
2022-08-05T17:19:45.560Z,14.50
2022-08-05T17:22:24.659Z,14.70
2022-08-05T17:24:57.598Z,14.90
2022-08-05T17:27:33.569Z,15.00
2022-08-05T17:30:12.050Z,15.10
2022-08-05T17:32:47.364Z,15.10
2022-08-05T17:35:21.019Z,15.10
2022-08-05T17:37:49.540Z,15.00
2022-08-05T17:40:22.622Z,15.00
2022-08-05T17:42:53.235Z,15.10
2022-08-05T17:45:29.596Z,15.30
2022-08-05T17:48:07.934Z,15.40
2022-08-05T17:50:36.553Z,15.60
2022-08-05T17:53:08.447Z,15.70
2022-08-05T17:55:39.561Z,15.90
2022-08-05T17:58:11.278Z,16.00
2022-08-05T18:00:45.449Z,16.10
2022-08-05T18:03:48.510Z,16.30
2022-08-05T18:06:12.196Z,16.30
2022-08-05T18:08:44.919Z,16.30
2022-08-05T18:11:24.313Z,16.30
2022-08-05T18:14:04.258Z,16.10
2022-08-05T18:16:34.990Z,15.90
2022-08-05T18:19:19.049Z,15.60
2022-08-05T18:22:08.307Z,15.30
2022-08-05T18:24:39.483Z,15.00
2022-08-05T18:27:12.431Z,14.70
2022-08-05T18:29:51.980Z,14.50
2022-08-05T18:32:27.869Z,14.20
2022-08-05T18:34:57.680Z,13.90
2022-08-05T18:37:34.336Z,13.60
2022-08-05T18:41:50.277Z,13.30
2022-08-05T18:42:57.559Z,13.10
2022-08-05T18:45:25.665Z,12.90
2022-08-05T18:48:12.764Z,12.80
2022-08-05T18:52:04.745Z,12.70
2022-08-05T18:54:05.581Z,12.60
2022-08-05T18:56:33.763Z,12.40
2022-08-05T18:59:02.758Z,12.20
2022-08-05T19:01:58.495Z,11.90
2022-08-05T19:04:30.124Z,11.70
2022-08-05T19:06:58.254Z,11.50
2022-08-05T19:09:26.347Z,11.50
2022-08-05T19:12:00.195Z,11.50
2022-08-05T19:14:53.450Z,11.40
2022-08-05T19:17:18.307Z,11.30
2022-08-05T19:19:48.887Z,11.20
2022-08-05T19:22:17.744Z,11.10
2022-08-05T19:24:54.235Z,11.10
2022-08-05T19:27:30.465Z,11.00
2022-08-05T19:29:59.462Z,10.90
2022-08-05T19:32:27.828Z,10.80
2022-08-05T19:34:58.285Z,10.60
2022-08-05T19:37:29.887Z,10.60
2022-08-05T19:40:15.667Z,10.60
2022-08-05T19:43:05.358Z,10.50
2022-08-05T19:45:33.311Z,10.50
2022-08-05T19:48:06.070Z,10.40
2022-08-05T19:50:36.728Z,10.40
2022-08-05T19:53:09.584Z,10.30
2022-08-05T19:56:13.641Z,10.30
2022-08-05T19:58:29.993Z,10.30
2022-08-05T20:00:58.384Z,10.40
2022-08-05T20:03:27.343Z,10.50
2022-08-05T20:06:15.365Z,10.60
2022-08-05T20:08:47.517Z,10.60
2022-08-05T20:11:18.017Z,10.70
2022-08-05T20:13:59.050Z,10.80
2022-08-05T20:16:36.180Z,10.90
2022-08-05T20:19:05.708Z,11.00
2022-08-05T20:21:37.826Z,11.10
2022-08-05T20:24:07.297Z,11.20
2022-08-05T20:26:39.664Z,11.20
2022-08-05T20:29:26.879Z,11.30
2022-08-05T20:31:58.306Z,11.40
2022-08-05T20:34:27.946Z,11.50
2022-08-05T20:36:57.757Z,11.50
2022-08-05T20:39:25.951Z,11.50
2022-08-05T20:42:03.940Z,11.60
2022-08-05T20:44:33.140Z,11.60
2022-08-05T20:47:07.592Z,11.60
2022-08-05T20:49:39.605Z,11.50
2022-08-05T20:52:10.711Z,11.50
2022-08-05T20:54:43.038Z,11.50
2022-08-05T20:57:24.537Z,11.40
2022-08-05T21:00:34.872Z,11.40
2022-08-05T21:03:06.866Z,11.20
2022-08-05T21:05:48.363Z,11.10
2022-08-05T21:08:26.542Z,11.00
2022-08-05T21:10:58.303Z,10.80
2022-08-05T21:13:56.059Z,10.70
2022-08-05T21:16:15.223Z,10.60
2022-08-05T21:18:45.343Z,10.40
2022-08-05T21:21:13.523Z,10.20
2022-08-05T21:23:43.225Z,10.20
2022-08-05T21:26:14.425Z,10.10
2022-08-05T21:28:47.741Z,10.00
2022-08-05T21:31:19.291Z,10.00
2022-08-05T21:33:49.288Z,10.00
2022-08-05T21:36:27.710Z,9.90
2022-08-05T21:38:59.750Z,9.90
2022-08-05T21:41:32.873Z,9.80
2022-08-05T21:44:04.116Z,9.80
2022-08-05T21:46:34.644Z,9.70
2022-08-05T21:49:04.720Z,9.70
2022-08-05T21:52:15.688Z,9.60
2022-08-05T21:54:30.864Z,9.50
2022-08-05T21:57:28.402Z,9.60
2022-08-05T22:00:03.382Z,9.60
2022-08-05T22:02:41.483Z,9.70
2022-08-05T22:05:11.122Z,9.70
2022-08-05T22:07:58.277Z,9.70
2022-08-05T22:10:29.420Z,9.70
2022-08-05T22:13:09.158Z,9.90
2022-08-05T22:16:02.532Z,9.90
2022-08-05T22:18:36.153Z,10.00
2022-08-05T22:21:19.203Z,9.90
2022-08-05T22:24:12.936Z,9.80
2022-08-05T22:27:00.471Z,9.70
2022-08-05T22:29:34.854Z,9.70
2022-08-05T22:32:03.582Z,9.70
2022-08-05T22:34:32.615Z,9.60
2022-08-05T22:37:03.843Z,9.50
2022-08-05T22:39:34.493Z,9.50
2022-08-05T22:42:12.361Z,9.40
2022-08-05T22:44:48.613Z,9.40
2022-08-05T22:47:29.898Z,9.30
2022-08-05T22:50:21.306Z,9.30
2022-08-05T22:52:48.611Z,9.30
2022-08-05T22:55:18.309Z,9.20
2022-08-05T22:57:49.427Z,9.20
2022-08-05T23:00:20.792Z,9.20
2022-08-05T23:02:49.964Z,9.10
2022-08-05T23:05:18.803Z,9.10
2022-08-05T23:07:50.713Z,9.10
2022-08-05T23:10:19.672Z,9.00
2022-08-05T23:12:51.730Z,9.00
2022-08-05T23:15:29.364Z,8.90
2022-08-05T23:18:03.380Z,8.80
2022-08-05T23:20:37.448Z,8.80
2022-08-05T23:23:08.567Z,8.80
2022-08-05T23:25:52.436Z,9.00
2022-08-05T23:28:28.545Z,9.30
2022-08-05T23:31:16.100Z,9.50
2022-08-05T23:34:04.059Z,9.40
2022-08-05T23:36:40.018Z,9.50
2022-08-05T23:39:17.491Z,9.40
2022-08-05T23:42:00.491Z,9.30
2022-08-05T23:44:31.308Z,9.20
2022-08-05T23:47:00.579Z,9.20
2022-08-05T23:49:35.807Z,9.10
2022-08-05T23:52:21.946Z,9.10
2022-08-05T23:54:54.132Z,9.20
2022-08-05T23:57:22.719Z,9.30
